sensor_id;sensor_type;location;lat;lon;timestamp;temperature;humidity
67161;DHT22;54088;52.238;21.104;2022-07-01T00:00:37;25.40;64.70
67161;DHT22;54088;52.238;21.104;2022-07-01T00:03:03;25.40;65.10
67161;DHT22;54088;52.238;21.104;2022-07-01T00:05:29;25.50;65.30
67161;DHT22;54088;52.238;21.104;2022-07-01T00:07:56;25.40;65.40
67161;DHT22;54088;52.238;21.104;2022-07-01T00:10:21;25.40;65.40
67161;DHT22;54088;52.238;21.104;2022-07-01T00:12:47;25.50;65.70
67161;DHT22;54088;52.238;21.104;2022-07-01T00:15:13;25.40;66.00
67161;DHT22;54088;52.238;21.104;2022-07-01T00:17:39;25.40;66.10
67161;DHT22;54088;52.238;21.104;2022-07-01T00:20:05;25.40;66.30
67161;DHT22;54088;52.238;21.104;2022-07-01T00:22:33;25.40;66.80
67161;DHT22;54088;52.238;21.104;2022-07-01T00:24:59;25.30;67.00
67161;DHT22;54088;52.238;21.104;2022-07-01T00:27:24;25.30;67.10
67161;DHT22;54088;52.238;21.104;2022-07-01T00:29:50;25.30;67.20
67161;DHT22;54088;52.238;21.104;2022-07-01T00:32:16;25.30;67.50
67161;DHT22;54088;52.238;21.104;2022-07-01T00:34:41;25.20;67.60
67161;DHT22;54088;52.238;21.104;2022-07-01T00:37:07;25.10;67.80
67161;DHT22;54088;52.238;21.104;2022-07-01T00:39:33;25.20;67.90
67161;DHT22;54088;52.238;21.104;2022-07-01T00:42:02;25.20;67.90
67161;DHT22;54088;52.238;21.104;2022-07-01T00:44:29;25.20;68.00
67161;DHT22;54088;52.238;21.104;2022-07-01T00:46:55;25.20;67.80
67161;DHT22;54088;52.238;21.104;2022-07-01T00:49:22;25.20;67.80
67161;DHT22;54088;52.238;21.104;2022-07-01T00:51:48;25.20;67.80
67161;DHT22;54088;52.238;21.104;2022-07-01T00:54:14;25.20;68.00
67161;DHT22;54088;52.238;21.104;2022-07-01T00:56:40;25.20;68.00
67161;DHT22;54088;52.238;21.104;2022-07-01T00:59:06;25.20;68.00
67161;DHT22;54088;52.238;21.104;2022-07-01T01:01:32;25.20;68.00
67161;DHT22;54088;52.238;21.104;2022-07-01T01:03:58;25.20;68.10
67161;DHT22;54088;52.238;21.104;2022-07-01T01:06:24;25.20;68.20
67161;DHT22;54088;52.238;21.104;2022-07-01T01:08:50;25.20;68.30
67161;DHT22;54088;52.238;21.104;2022-07-01T01:11:16;25.20;68.50
67161;DHT22;54088;52.238;21.104;2022-07-01T01:13:42;25.10;68.60
67161;DHT22;54088;52.238;21.104;2022-07-01T01:16:18;25.10;68.70
67161;DHT22;54088;52.238;21.104;2022-07-01T01:18:44;25.00;68.90
67161;DHT22;54088;52.238;21.104;2022-07-01T01:21:10;24.90;69.00
67161;DHT22;54088;52.238;21.104;2022-07-01T01:23:36;24.90;69.20
67161;DHT22;54088;52.238;21.104;2022-07-01T01:26:02;24.90;69.20
67161;DHT22;54088;52.238;21.104;2022-07-01T01:28:28;24.90;69.60
67161;DHT22;54088;52.238;21.104;2022-07-01T01:30:54;24.90;69.50
67161;DHT22;54088;52.238;21.104;2022-07-01T01:33:19;24.90;69.30
67161;DHT22;54088;52.238;21.104;2022-07-01T01:35:45;25.00;69.20
67161;DHT22;54088;52.238;21.104;2022-07-01T01:38:11;25.00;69.10
67161;DHT22;54088;52.238;21.104;2022-07-01T01:40:36;25.00;69.10
67161;DHT22;54088;52.238;21.104;2022-07-01T01:43:02;24.90;69.20
67161;DHT22;54088;52.238;21.104;2022-07-01T01:45:28;24.90;69.70
67161;DHT22;54088;52.238;21.104;2022-07-01T01:47:54;25.00;69.20
67161;DHT22;54088;52.238;21.104;2022-07-01T01:50:20;24.90;69.50
67161;DHT22;54088;52.238;21.104;2022-07-01T01:52:46;24.90;69.60
67161;DHT22;54088;52.238;21.104;2022-07-01T01:55:12;24.90;69.70
67161;DHT22;54088;52.238;21.104;2022-07-01T01:57:38;24.90;69.80
67161;DHT22;54088;52.238;21.104;2022-07-01T02:00:07;24.90;69.80
67161;DHT22;54088;52.238;21.104;2022-07-01T02:02:33;24.90;69.80
67161;DHT22;54088;52.238;21.104;2022-07-01T02:05:03;24.80;69.80
67161;DHT22;54088;52.238;21.104;2022-07-01T02:07:28;24.80;70.00
67161;DHT22;54088;52.238;21.104;2022-07-01T02:09:54;24.80;70.10
67161;DHT22;54088;52.238;21.104;2022-07-01T02:12:20;24.80;70.10
67161;DHT22;54088;52.238;21.104;2022-07-01T02:14:45;24.80;70.20
67161;DHT22;54088;52.238;21.104;2022-07-01T02:17:11;24.80;70.10
67161;DHT22;54088;52.238;21.104;2022-07-01T02:19:36;24.80;70.00
67161;DHT22;54088;52.238;21.104;2022-07-01T02:22:02;24.80;70.30
67161;DHT22;54088;52.238;21.104;2022-07-01T02:24:28;24.70;70.30
67161;DHT22;54088;52.238;21.104;2022-07-01T02:26:54;24.80;70.40
67161;DHT22;54088;52.238;21.104;2022-07-01T02:29:19;24.70;70.50
67161;DHT22;54088;52.238;21.104;2022-07-01T02:31:45;24.80;70.40
67161;DHT22;54088;52.238;21.104;2022-07-01T02:34:10;24.70;70.70
67161;DHT22;54088;52.238;21.104;2022-07-01T02:36:36;24.60;70.90
67161;DHT22;54088;52.238;21.104;2022-07-01T02:39:02;24.60;70.80
67161;DHT22;54088;52.238;21.104;2022-07-01T02:41:28;24.60;70.90
67161;DHT22;54088;52.238;21.104;2022-07-01T02:43:53;24.60;71.00
67161;DHT22;54088;52.238;21.104;2022-07-01T02:46:19;24.70;71.00
67161;DHT22;54088;52.238;21.104;2022-07-01T02:48:45;24.70;70.60
67161;DHT22;54088;52.238;21.104;2022-07-01T02:51:10;24.70;70.20
67161;DHT22;54088;52.238;21.104;2022-07-01T02:53:36;24.80;70.20
67161;DHT22;54088;52.238;21.104;2022-07-01T02:56:02;24.70;70.40
67161;DHT22;54088;52.238;21.104;2022-07-01T02:58:27;24.70;70.30
67161;DHT22;54088;52.238;21.104;2022-07-01T03:00:53;24.80;70.30
67161;DHT22;54088;52.238;21.104;2022-07-01T03:03:19;24.80;70.40
67161;DHT22;54088;52.238;21.104;2022-07-01T03:05:46;24.90;70.10
67161;DHT22;54088;52.238;21.104;2022-07-01T03:08:13;25.10;69.30
67161;DHT22;54088;52.238;21.104;2022-07-01T03:10:39;25.10;68.70
67161;DHT22;54088;52.238;21.104;2022-07-01T03:13:04;25.10;68.60
67161;DHT22;54088;52.238;21.104;2022-07-01T03:15:30;25.10;68.60
67161;DHT22;54088;52.238;21.104;2022-07-01T03:17:56;25.30;68.20
67161;DHT22;54088;52.238;21.104;2022-07-01T03:20:21;25.40;67.90
67161;DHT22;54088;52.238;21.104;2022-07-01T03:22:47;25.60;67.70
67161;DHT22;54088;52.238;21.104;2022-07-01T03:25:13;25.80;67.20
67161;DHT22;54088;52.238;21.104;2022-07-01T03:27:39;26.00;66.60
67161;DHT22;54088;52.238;21.104;2022-07-01T03:30:11;26.20;66.40
67161;DHT22;54088;52.238;21.104;2022-07-01T03:32:37;26.30;65.70
67161;DHT22;54088;52.238;21.104;2022-07-01T03:35:02;26.50;64.80
67161;DHT22;54088;52.238;21.104;2022-07-01T03:37:49;26.80;63.80
67161;DHT22;54088;52.238;21.104;2022-07-01T03:40:14;27.10;63.00
67161;DHT22;54088;52.238;21.104;2022-07-01T03:42:40;27.10;62.90
67161;DHT22;54088;52.238;21.104;2022-07-01T03:45:06;27.50;62.00
67161;DHT22;54088;52.238;21.104;2022-07-01T03:47:32;28.10;60.70
67161;DHT22;54088;52.238;21.104;2022-07-01T03:49:57;28.70;59.30
67161;DHT22;54088;52.238;21.104;2022-07-01T03:52:23;28.80;58.60
67161;DHT22;54088;52.238;21.104;2022-07-01T03:54:49;28.70;58.60
67161;DHT22;54088;52.238;21.104;2022-07-01T03:57:17;28.60;58.50
67161;DHT22;54088;52.238;21.104;2022-07-01T03:59:43;29.10;57.80
67161;DHT22;54088;52.238;21.104;2022-07-01T04:02:08;29.80;56.30
67161;DHT22;54088;52.238;21.104;2022-07-01T04:04:35;30.10;55.80
67161;DHT22;54088;52.238;21.104;2022-07-01T04:07:02;29.80;55.80
67161;DHT22;54088;52.238;21.104;2022-07-01T04:09:29;29.70;55.90
67161;DHT22;54088;52.238;21.104;2022-07-01T04:11:55;30.00;55.30
67161;DHT22;54088;52.238;21.104;2022-07-01T04:14:21;30.90;54.40
67161;DHT22;54088;52.238;21.104;2022-07-01T04:16:49;31.50;53.00
67161;DHT22;54088;52.238;21.104;2022-07-01T04:19:15;31.70;52.50
67161;DHT22;54088;52.238;21.104;2022-07-01T04:21:41;31.60;52.30
67161;DHT22;54088;52.238;21.104;2022-07-01T04:24:25;31.40;52.60
67161;DHT22;54088;52.238;21.104;2022-07-01T04:26:52;32.20;51.50
67161;DHT22;54088;52.238;21.104;2022-07-01T04:29:18;32.80;50.50
67161;DHT22;54088;52.238;21.104;2022-07-01T04:31:44;33.40;49.20
67161;DHT22;54088;52.238;21.104;2022-07-01T04:34:10;33.50;48.80
67161;DHT22;54088;52.238;21.104;2022-07-01T04:36:37;33.30;49.30
67161;DHT22;54088;52.238;21.104;2022-07-01T04:39:04;32.80;49.20
67161;DHT22;54088;52.238;21.104;2022-07-01T04:41:30;32.90;49.80
67161;DHT22;54088;52.238;21.104;2022-07-01T04:44:15;33.80;48.70
67161;DHT22;54088;52.238;21.104;2022-07-01T04:46:41;34.50;47.10
67161;DHT22;54088;52.238;21.104;2022-07-01T04:49:07;34.30;47.60
67161;DHT22;54088;52.238;21.104;2022-07-01T04:51:33;34.20;48.20
67161;DHT22;54088;52.238;21.104;2022-07-01T04:54:04;33.80;47.70
67161;DHT22;54088;52.238;21.104;2022-07-01T04:56:30;33.60;48.00
67161;DHT22;54088;52.238;21.104;2022-07-01T04:58:56;34.00;47.50
67161;DHT22;54088;52.238;21.104;2022-07-01T05:01:22;34.20;47.50
67161;DHT22;54088;52.238;21.104;2022-07-01T05:03:48;34.10;47.90
67161;DHT22;54088;52.238;21.104;2022-07-01T05:06:14;33.40;48.70
67161;DHT22;54088;52.238;21.104;2022-07-01T05:08:39;32.40;50.00
67161;DHT22;54088;52.238;21.104;2022-07-01T05:11:05;31.80;51.40
67161;DHT22;54088;52.238;21.104;2022-07-01T05:13:31;31.50;52.40
67161;DHT22;54088;52.238;21.104;2022-07-01T05:16:01;31.30;53.00
67161;DHT22;54088;52.238;21.104;2022-07-01T05:18:27;31.30;53.20
67161;DHT22;54088;52.238;21.104;2022-07-01T05:21:11;31.30;53.10
67161;DHT22;54088;52.238;21.104;2022-07-01T05:23:55;31.40;52.60
67161;DHT22;54088;52.238;21.104;2022-07-01T05:26:21;31.10;53.50
67161;DHT22;54088;52.238;21.104;2022-07-01T05:28:46;31.60;53.10
67161;DHT22;54088;52.238;21.104;2022-07-01T05:31:13;31.50;53.00
67161;DHT22;54088;52.238;21.104;2022-07-01T05:33:39;31.60;52.70
67161;DHT22;54088;52.238;21.104;2022-07-01T05:36:05;31.30;53.20
67161;DHT22;54088;52.238;21.104;2022-07-01T05:38:31;31.70;53.00
67161;DHT22;54088;52.238;21.104;2022-07-01T05:40:56;32.10;52.40
67161;DHT22;54088;52.238;21.104;2022-07-01T05:43:22;31.90;52.10
67161;DHT22;54088;52.238;21.104;2022-07-01T05:45:47;32.00;52.20
67161;DHT22;54088;52.238;21.104;2022-07-01T05:48:13;32.20;51.80
67161;DHT22;54088;52.238;21.104;2022-07-01T05:50:42;31.90;52.00
67161;DHT22;54088;52.238;21.104;2022-07-01T05:53:11;31.80;52.10
67161;DHT22;54088;52.238;21.104;2022-07-01T05:55:36;32.00;52.10
67161;DHT22;54088;52.238;21.104;2022-07-01T05:58:02;32.20;51.90
67161;DHT22;54088;52.238;21.104;2022-07-01T06:00:28;32.30;51.30
67161;DHT22;54088;52.238;21.104;2022-07-01T06:02:54;32.20;51.60
67161;DHT22;54088;52.238;21.104;2022-07-01T06:05:20;32.10;52.00
67161;DHT22;54088;52.238;21.104;2022-07-01T06:07:46;32.00;51.50
67161;DHT22;54088;52.238;21.104;2022-07-01T06:10:12;32.00;52.20
67161;DHT22;54088;52.238;21.104;2022-07-01T06:12:40;32.20;51.90
67161;DHT22;54088;52.238;21.104;2022-07-01T06:15:08;32.50;51.60
67161;DHT22;54088;52.238;21.104;2022-07-01T06:17:39;32.70;51.20
67161;DHT22;54088;52.238;21.104;2022-07-01T06:20:06;33.00;51.40
67161;DHT22;54088;52.238;21.104;2022-07-01T06:22:32;33.50;50.30
67161;DHT22;54088;52.238;21.104;2022-07-01T06:24:58;33.70;49.10
67161;DHT22;54088;52.238;21.104;2022-07-01T06:27:24;33.60;49.40
67161;DHT22;54088;52.238;21.104;2022-07-01T06:29:51;33.60;49.80
67161;DHT22;54088;52.238;21.104;2022-07-01T06:32:16;33.80;49.10
67161;DHT22;54088;52.238;21.104;2022-07-01T06:34:42;33.80;49.30
67161;DHT22;54088;52.238;21.104;2022-07-01T06:37:08;33.40;49.40
67161;DHT22;54088;52.238;21.104;2022-07-01T06:39:34;33.00;50.90
67161;DHT22;54088;52.238;21.104;2022-07-01T06:41:59;33.10;50.50
67161;DHT22;54088;52.238;21.104;2022-07-01T06:44:25;33.40;49.90
67161;DHT22;54088;52.238;21.104;2022-07-01T06:46:51;33.80;49.40
67161;DHT22;54088;52.238;21.104;2022-07-01T06:49:17;34.10;48.50
67161;DHT22;54088;52.238;21.104;2022-07-01T06:51:43;33.90;48.90
67161;DHT22;54088;52.238;21.104;2022-07-01T06:54:09;34.20;48.50
67161;DHT22;54088;52.238;21.104;2022-07-01T06:56:34;34.10;48.50
67161;DHT22;54088;52.238;21.104;2022-07-01T06:59:00;34.30;48.70
67161;DHT22;54088;52.238;21.104;2022-07-01T07:01:27;34.70;48.80
67161;DHT22;54088;52.238;21.104;2022-07-01T07:03:53;35.00;47.20
67161;DHT22;54088;52.238;21.104;2022-07-01T07:06:19;34.60;47.30
67161;DHT22;54088;52.238;21.104;2022-07-01T07:08:45;34.90;47.40
67161;DHT22;54088;52.238;21.104;2022-07-01T07:11:11;34.80;47.40
67161;DHT22;54088;52.238;21.104;2022-07-01T07:13:37;34.90;47.40
67161;DHT22;54088;52.238;21.104;2022-07-01T07:16:03;34.80;47.20
67161;DHT22;54088;52.238;21.104;2022-07-01T07:18:29;34.80;47.50
67161;DHT22;54088;52.238;21.104;2022-07-01T07:20:54;34.70;47.60
67161;DHT22;54088;52.238;21.104;2022-07-01T07:23:20;34.90;47.60
67161;DHT22;54088;52.238;21.104;2022-07-01T07:25:45;35.30;47.60
67161;DHT22;54088;52.238;21.104;2022-07-01T07:28:11;35.30;46.80
67161;DHT22;54088;52.238;21.104;2022-07-01T07:30:37;35.60;46.50
67161;DHT22;54088;52.238;21.104;2022-07-01T07:33:03;35.80;45.70
67161;DHT22;54088;52.238;21.104;2022-07-01T07:35:29;35.70;45.60
67161;DHT22;54088;52.238;21.104;2022-07-01T07:37:55;35.40;45.90
67161;DHT22;54088;52.238;21.104;2022-07-01T07:40:21;35.40;46.60
67161;DHT22;54088;52.238;21.104;2022-07-01T07:42:47;35.50;45.90
67161;DHT22;54088;52.238;21.104;2022-07-01T07:45:14;35.20;46.20
67161;DHT22;54088;52.238;21.104;2022-07-01T07:47:46;35.40;46.00
67161;DHT22;54088;52.238;21.104;2022-07-01T07:50:14;35.80;45.90
67161;DHT22;54088;52.238;21.104;2022-07-01T07:52:40;35.90;45.10
67161;DHT22;54088;52.238;21.104;2022-07-01T07:55:08;36.00;45.40
67161;DHT22;54088;52.238;21.104;2022-07-01T07:57:36;36.30;44.70
67161;DHT22;54088;52.238;21.104;2022-07-01T08:00:06;36.50;44.00
67161;DHT22;54088;52.238;21.104;2022-07-01T08:02:32;36.60;44.30
67161;DHT22;54088;52.238;21.104;2022-07-01T08:04:57;36.60;43.40
67161;DHT22;54088;52.238;21.104;2022-07-01T08:07:23;36.60;43.50
67161;DHT22;54088;52.238;21.104;2022-07-01T08:09:49;36.70;43.20
67161;DHT22;54088;52.238;21.104;2022-07-01T08:12:15;36.70;43.70
67161;DHT22;54088;52.238;21.104;2022-07-01T08:14:41;36.80;42.70
67161;DHT22;54088;52.238;21.104;2022-07-01T08:17:07;36.80;42.40
67161;DHT22;54088;52.238;21.104;2022-07-01T08:19:33;36.60;43.20
67161;DHT22;54088;52.238;21.104;2022-07-01T08:21:58;36.30;42.90
67161;DHT22;54088;52.238;21.104;2022-07-01T08:24:24;36.20;43.00
67161;DHT22;54088;52.238;21.104;2022-07-01T08:26:50;36.00;42.90
67161;DHT22;54088;52.238;21.104;2022-07-01T08:29:15;36.00;43.40
67161;DHT22;54088;52.238;21.104;2022-07-01T08:31:41;36.00;43.00
67161;DHT22;54088;52.238;21.104;2022-07-01T08:34:07;36.30;42.40
67161;DHT22;54088;52.238;21.104;2022-07-01T08:36:33;36.50;42.60
67161;DHT22;54088;52.238;21.104;2022-07-01T08:38:59;36.70;41.90
67161;DHT22;54088;52.238;21.104;2022-07-01T08:41:25;36.70;41.30
67161;DHT22;54088;52.238;21.104;2022-07-01T08:43:50;36.50;41.80
67161;DHT22;54088;52.238;21.104;2022-07-01T08:46:16;36.60;41.40
67161;DHT22;54088;52.238;21.104;2022-07-01T08:48:43;36.90;41.00
67161;DHT22;54088;52.238;21.104;2022-07-01T08:51:10;38.40;39.20
67161;DHT22;54088;52.238;21.104;2022-07-01T08:53:36;40.30;36.90
67161;DHT22;54088;52.238;21.104;2022-07-01T08:56:02;41.40;35.50
67161;DHT22;54088;52.238;21.104;2022-07-01T08:58:49;41.90;34.60
67161;DHT22;54088;52.238;21.104;2022-07-01T09:01:22;41.90;34.00
67161;DHT22;54088;52.238;21.104;2022-07-01T09:03:52;41.50;35.80
67161;DHT22;54088;52.238;21.104;2022-07-01T09:06:23;40.60;35.00
67161;DHT22;54088;52.238;21.104;2022-07-01T09:08:49;40.20;35.60
67161;DHT22;54088;52.238;21.104;2022-07-01T09:13:45;39.10;36.20
67161;DHT22;54088;52.238;21.104;2022-07-01T09:16:49;38.70;37.00
67161;DHT22;54088;52.238;21.104;2022-07-01T09:19:16;38.00;37.30
67161;DHT22;54088;52.238;21.104;2022-07-01T09:21:42;37.40;38.50
67161;DHT22;54088;52.238;21.104;2022-07-01T09:24:34;37.30;39.60
67161;DHT22;54088;52.238;21.104;2022-07-01T09:27:04;37.30;40.40
67161;DHT22;54088;52.238;21.104;2022-07-01T09:29:35;36.90;39.50
67161;DHT22;54088;52.238;21.104;2022-07-01T09:32:03;36.70;38.90
67161;DHT22;54088;52.238;21.104;2022-07-01T09:34:34;36.30;39.80
67161;DHT22;54088;52.238;21.104;2022-07-01T09:37:01;36.40;40.10
67161;DHT22;54088;52.238;21.104;2022-07-01T09:39:27;36.40;41.00
67161;DHT22;54088;52.238;21.104;2022-07-01T09:41:57;36.50;41.20
67161;DHT22;54088;52.238;21.104;2022-07-01T09:44:23;36.40;41.10
67161;DHT22;54088;52.238;21.104;2022-07-01T09:46:55;36.30;42.00
67161;DHT22;54088;52.238;21.104;2022-07-01T09:49:22;36.40;40.10
67161;DHT22;54088;52.238;21.104;2022-07-01T09:51:50;36.30;40.30
67161;DHT22;54088;52.238;21.104;2022-07-01T09:54:16;36.30;40.40
67161;DHT22;54088;52.238;21.104;2022-07-01T09:56:42;36.40;39.10
67161;DHT22;54088;52.238;21.104;2022-07-01T09:59:08;36.30;38.20
67161;DHT22;54088;52.238;21.104;2022-07-01T10:01:34;36.40;38.80
67161;DHT22;54088;52.238;21.104;2022-07-01T10:04:01;36.50;37.90
67161;DHT22;54088;52.238;21.104;2022-07-01T10:14:49;36.20;39.70
67161;DHT22;54088;52.238;21.104;2022-07-01T10:17:34;36.00;39.60
67161;DHT22;54088;52.238;21.104;2022-07-01T10:20:12;36.00;40.20
67161;DHT22;54088;52.238;21.104;2022-07-01T10:22:39;36.00;39.30
67161;DHT22;54088;52.238;21.104;2022-07-01T10:28:43;36.00;39.90
67161;DHT22;54088;52.238;21.104;2022-07-01T10:31:13;35.90;39.60
67161;DHT22;54088;52.238;21.104;2022-07-01T10:36:32;35.70;39.80
67161;DHT22;54088;52.238;21.104;2022-07-01T10:41:30;35.60;40.00
67161;DHT22;54088;52.238;21.104;2022-07-01T10:43:56;35.70;40.10
67161;DHT22;54088;52.238;21.104;2022-07-01T10:49:07;35.70;39.30
67161;DHT22;54088;52.238;21.104;2022-07-01T10:51:49;35.60;38.80
67161;DHT22;54088;52.238;21.104;2022-07-01T10:57:18;35.60;39.60
67161;DHT22;54088;52.238;21.104;2022-07-01T11:02:21;35.60;38.80
67161;DHT22;54088;52.238;21.104;2022-07-01T11:04:48;35.60;38.80
67161;DHT22;54088;52.238;21.104;2022-07-01T11:07:14;35.50;38.10
67161;DHT22;54088;52.238;21.104;2022-07-01T11:09:40;35.50;38.00
67161;DHT22;54088;52.238;21.104;2022-07-01T11:12:06;35.50;38.00
67161;DHT22;54088;52.238;21.104;2022-07-01T11:14:36;35.70;37.90
67161;DHT22;54088;52.238;21.104;2022-07-01T11:17:04;35.60;38.10
67161;DHT22;54088;52.238;21.104;2022-07-01T11:19:30;35.70;38.60
67161;DHT22;54088;52.238;21.104;2022-07-01T11:21:55;35.80;38.40
67161;DHT22;54088;52.238;21.104;2022-07-01T11:24:22;35.70;38.90
67161;DHT22;54088;52.238;21.104;2022-07-01T11:26:48;35.70;39.30
67161;DHT22;54088;52.238;21.104;2022-07-01T11:29:19;35.70;39.20
67161;DHT22;54088;52.238;21.104;2022-07-01T11:31:48;35.70;38.90
67161;DHT22;54088;52.238;21.104;2022-07-01T11:34:15;35.70;38.60
67161;DHT22;54088;52.238;21.104;2022-07-01T11:36:43;35.60;38.80
67161;DHT22;54088;52.238;21.104;2022-07-01T11:39:27;35.60;38.80
67161;DHT22;54088;52.238;21.104;2022-07-01T11:42:00;35.70;38.90
67161;DHT22;54088;52.238;21.104;2022-07-01T11:44:43;35.90;39.10
67161;DHT22;54088;52.238;21.104;2022-07-01T11:47:12;35.90;39.00
67161;DHT22;54088;52.238;21.104;2022-07-01T11:49:45;35.90;39.40
67161;DHT22;54088;52.238;21.104;2022-07-01T11:52:11;35.80;39.00
67161;DHT22;54088;52.238;21.104;2022-07-01T11:54:39;35.80;39.20
67161;DHT22;54088;52.238;21.104;2022-07-01T11:59:38;35.80;39.30
67161;DHT22;54088;52.238;21.104;2022-07-01T12:02:06;35.80;39.20
67161;DHT22;54088;52.238;21.104;2022-07-01T12:04:32;35.80;39.10
67161;DHT22;54088;52.238;21.104;2022-07-01T12:06:59;35.70;39.50
67161;DHT22;54088;52.238;21.104;2022-07-01T12:09:25;35.90;39.00
67161;DHT22;54088;52.238;21.104;2022-07-01T12:11:52;35.80;39.00
67161;DHT22;54088;52.238;21.104;2022-07-01T12:14:33;35.70;38.60
67161;DHT22;54088;52.238;21.104;2022-07-01T12:17:05;35.60;39.20
67161;DHT22;54088;52.238;21.104;2022-07-01T12:19:45;35.50;39.10
67161;DHT22;54088;52.238;21.104;2022-07-01T12:22:22;35.50;39.50
67161;DHT22;54088;52.238;21.104;2022-07-01T12:24:53;35.50;39.70
67161;DHT22;54088;52.238;21.104;2022-07-01T12:27:29;35.50;39.30
67161;DHT22;54088;52.238;21.104;2022-07-01T12:29:58;35.50;39.60
67161;DHT22;54088;52.238;21.104;2022-07-01T12:32:26;35.60;39.60
67161;DHT22;54088;52.238;21.104;2022-07-01T12:34:53;35.70;38.90
67161;DHT22;54088;52.238;21.104;2022-07-01T12:39:52;35.70;38.50
67161;DHT22;54088;52.238;21.104;2022-07-01T12:42:22;35.70;38.60
67161;DHT22;54088;52.238;21.104;2022-07-01T12:44:49;35.40;38.70
67161;DHT22;54088;52.238;21.104;2022-07-01T12:47:33;35.50;38.70
67161;DHT22;54088;52.238;21.104;2022-07-01T12:55:22;35.60;38.50
67161;DHT22;54088;52.238;21.104;2022-07-01T12:57:49;35.60;38.30
67161;DHT22;54088;52.238;21.104;2022-07-01T13:00:20;35.50;37.70
67161;DHT22;54088;52.238;21.104;2022-07-01T13:02:50;35.30;38.10
67161;DHT22;54088;52.238;21.104;2022-07-01T13:05:16;35.50;38.40
67161;DHT22;54088;52.238;21.104;2022-07-01T13:07:42;35.40;38.20
67161;DHT22;54088;52.238;21.104;2022-07-01T13:10:08;35.50;38.40
67161;DHT22;54088;52.238;21.104;2022-07-01T13:12:34;35.50;38.40
67161;DHT22;54088;52.238;21.104;2022-07-01T13:14:59;35.40;37.80
67161;DHT22;54088;52.238;21.104;2022-07-01T13:17:26;35.40;37.70
67161;DHT22;54088;52.238;21.104;2022-07-01T13:19:52;35.40;37.90
67161;DHT22;54088;52.238;21.104;2022-07-01T13:22:18;35.50;37.60
67161;DHT22;54088;52.238;21.104;2022-07-01T13:24:44;35.70;37.20
67161;DHT22;54088;52.238;21.104;2022-07-01T13:27:09;35.70;36.80
67161;DHT22;54088;52.238;21.104;2022-07-01T13:29:35;35.70;36.90
67161;DHT22;54088;52.238;21.104;2022-07-01T13:32:01;35.60;37.00
67161;DHT22;54088;52.238;21.104;2022-07-01T13:34:27;35.60;37.10
67161;DHT22;54088;52.238;21.104;2022-07-01T13:36:52;35.60;37.40
67161;DHT22;54088;52.238;21.104;2022-07-01T13:39:18;35.70;37.30
67161;DHT22;54088;52.238;21.104;2022-07-01T13:41:44;35.70;37.40
67161;DHT22;54088;52.238;21.104;2022-07-01T13:44:09;35.60;37.40
67161;DHT22;54088;52.238;21.104;2022-07-01T13:46:35;35.50;37.10
67161;DHT22;54088;52.238;21.104;2022-07-01T13:49:02;35.40;37.40
67161;DHT22;54088;52.238;21.104;2022-07-01T13:51:27;35.40;37.00
67161;DHT22;54088;52.238;21.104;2022-07-01T13:53:53;35.40;37.00
67161;DHT22;54088;52.238;21.104;2022-07-01T13:56:19;35.40;37.00
67161;DHT22;54088;52.238;21.104;2022-07-01T13:58:45;35.40;37.00
67161;DHT22;54088;52.238;21.104;2022-07-01T14:01:10;35.50;36.90
67161;DHT22;54088;52.238;21.104;2022-07-01T14:03:36;35.50;37.10
67161;DHT22;54088;52.238;21.104;2022-07-01T14:06:02;35.50;37.50
67161;DHT22;54088;52.238;21.104;2022-07-01T14:08:28;35.50;37.60
67161;DHT22;54088;52.238;21.104;2022-07-01T14:10:54;35.50;37.90
67161;DHT22;54088;52.238;21.104;2022-07-01T14:13:20;35.40;38.30
67161;DHT22;54088;52.238;21.104;2022-07-01T14:15:47;35.60;37.70
67161;DHT22;54088;52.238;21.104;2022-07-01T14:18:13;35.60;37.50
67161;DHT22;54088;52.238;21.104;2022-07-01T14:20:41;35.70;37.50
67161;DHT22;54088;52.238;21.104;2022-07-01T14:23:07;35.80;37.20
67161;DHT22;54088;52.238;21.104;2022-07-01T14:25:34;35.70;37.60
67161;DHT22;54088;52.238;21.104;2022-07-01T14:28:00;35.70;37.50
67161;DHT22;54088;52.238;21.104;2022-07-01T14:30:25;35.60;37.40
67161;DHT22;54088;52.238;21.104;2022-07-01T14:32:51;35.60;37.60
67161;DHT22;54088;52.238;21.104;2022-07-01T14:35:17;35.60;37.60
67161;DHT22;54088;52.238;21.104;2022-07-01T14:37:43;35.40;37.60
67161;DHT22;54088;52.238;21.104;2022-07-01T14:40:10;35.30;37.70
67161;DHT22;54088;52.238;21.104;2022-07-01T14:42:37;35.40;37.60
67161;DHT22;54088;52.238;21.104;2022-07-01T14:45:05;35.40;38.00
67161;DHT22;54088;52.238;21.104;2022-07-01T14:47:31;35.40;37.50
67161;DHT22;54088;52.238;21.104;2022-07-01T14:49:58;35.40;38.00
67161;DHT22;54088;52.238;21.104;2022-07-01T14:52:24;35.40;37.20
67161;DHT22;54088;52.238;21.104;2022-07-01T14:54:51;35.30;37.20
67161;DHT22;54088;52.238;21.104;2022-07-01T14:57:18;35.30;37.30
67161;DHT22;54088;52.238;21.104;2022-07-01T14:59:45;35.30;37.60
67161;DHT22;54088;52.238;21.104;2022-07-01T15:02:11;35.30;37.30
67161;DHT22;54088;52.238;21.104;2022-07-01T15:04:37;35.40;37.50
67161;DHT22;54088;52.238;21.104;2022-07-01T15:07:05;35.30;37.10
67161;DHT22;54088;52.238;21.104;2022-07-01T15:09:31;35.40;36.80
67161;DHT22;54088;52.238;21.104;2022-07-01T15:11:57;35.40;37.10
67161;DHT22;54088;52.238;21.104;2022-07-01T15:14:23;35.30;36.50
67161;DHT22;54088;52.238;21.104;2022-07-01T15:16:48;35.10;36.50
67161;DHT22;54088;52.238;21.104;2022-07-01T15:19:14;35.10;36.70
67161;DHT22;54088;52.238;21.104;2022-07-01T15:21:40;35.10;36.40
67161;DHT22;54088;52.238;21.104;2022-07-01T15:24:06;35.10;36.50
67161;DHT22;54088;52.238;21.104;2022-07-01T15:26:31;35.20;36.20
67161;DHT22;54088;52.238;21.104;2022-07-01T15:28:57;35.10;36.20
67161;DHT22;54088;52.238;21.104;2022-07-01T15:31:22;35.10;36.40
67161;DHT22;54088;52.238;21.104;2022-07-01T15:33:48;35.00;36.20
67161;DHT22;54088;52.238;21.104;2022-07-01T15:36:14;35.00;36.40
67161;DHT22;54088;52.238;21.104;2022-07-01T15:38:40;35.10;36.60
67161;DHT22;54088;52.238;21.104;2022-07-01T15:41:06;35.10;36.50
67161;DHT22;54088;52.238;21.104;2022-07-01T15:43:32;35.10;36.50
67161;DHT22;54088;52.238;21.104;2022-07-01T15:45:59;35.10;36.20
67161;DHT22;54088;52.238;21.104;2022-07-01T15:48:24;35.10;36.30
67161;DHT22;54088;52.238;21.104;2022-07-01T15:50:50;35.00;36.60
67161;DHT22;54088;52.238;21.104;2022-07-01T15:53:17;35.00;36.60